Time;durP1;ratioP1;P1;durP2;ratioP2;P2;SDS_P1;SDS_P2;PMS_P1;PMS_P2;Temp;Humidity;BMP_temperature;BMP_pressure;BME280_temperature;BME280_humidity;BME280_pressure;Samples;Min_cycle;Max_cycle;Signal;HPM_P1;HPM_P2
2022/05/10 00:02:33;;;;;;;8.90;4.70;;;;;;;12.83;58.16;100476.88;10267246;28;20487;-63
2022/05/10 00:07:37;;;;;;;7.70;5.28;;;;;;;12.68;58.25;100472.56;10278245;28;20050;-64
2022/05/10 00:12:39;;;;;;;5.97;4.75;;;;;;;12.33;58.99;100482.53;10266018;28;20491;-64
2022/05/10 00:17:42;;;;;;;6.35;4.60;;;;;;;12.36;58.94;100479.72;10266159;28;20480;-64
2022/05/10 00:22:44;;;;;;;8.45;5.20;;;;;;;12.39;59.14;100476.06;10271949;28;20085;-64
2022/05/10 00:27:46;;;;;;;8.32;5.30;;;;;;;12.44;58.96;100468.75;10268421;28;20971;-66
2022/05/10 00:32:48;;;;;;;6.93;5.20;;;;;;;12.37;58.73;100476.16;10266298;28;20043;-63
2022/05/10 00:37:52;;;;;;;8.27;5.07;;;;;;;12.35;59.04;100474.56;10265791;28;21441;-63
2022/05/10 00:43:36;;;;;;;6.53;5.10;;;;;;;12.13;59.66;100472.28;10266084;28;20137;-64
2022/05/10 00:48:41;;;;;;;9.77;5.25;;;;;;;12.23;59.20;100462.97;10238534;28;20121;-64
2022/05/10 00:53:58;;;;;;;8.25;4.88;;;;;;;12.10;59.14;100462.84;10265583;28;20133;-63
2022/05/10 00:59:26;;;;;;;8.07;5.65;;;;;;;12.01;59.41;100450.25;10266153;28;20558;-65
2022/05/10 01:04:36;;;;;;;10.30;6.07;;;;;;;12.05;59.31;100449.13;10264481;28;20082;-64
2022/05/10 01:09:46;;;;;;;9.80;5.97;;;;;;;11.95;59.63;100444.50;10264885;28;20496;-65
2022/05/10 01:14:58;;;;;;;;;;;;;;;11.67;60.12;100441.75;10263014;28;20578;-66
2022/05/10 01:20:00;;;;;;;5.93;5.25;;;;;;;11.82;59.32;100435.66;10262607;28;19929;-65
2022/05/10 01:25:17;;;;;;;7.72;5.50;;;;;;;11.84;59.85;100425.94;10277171;28;20116;-65
2022/05/10 01:30:23;;;;;;;9.32;5.57;;;;;;;11.78;59.42;100426.28;10260291;28;20086;-66
2022/05/10 01:35:29;;;;;;;7.35;5.38;;;;;;;11.62;59.57;100422.84;10262926;28;20347;-65
2022/05/10 01:40:39;;;;;;;7.63;5.80;;;;;;;11.62;60.04;100420.22;10284409;28;20576;-65
2022/05/10 01:45:49;;;;;;;6.73;5.73;;;;;;;11.48;60.28;100423.59;10260960;28;20042;-65
2022/05/10 01:51:29;;;;;;;12.13;5.68;;;;;;;11.28;60.63;100421.25;10262501;28;20080;-65
2022/05/10 01:56:30;;;;;;;8.65;6.00;;;;;;;11.41;60.07;100413.56;10246549;28;20055;-66
2022/05/10 02:01:39;;;;;;;6.25;5.43;;;;;;;11.40;60.04;100415.31;10263396;28;20138;-65
2022/05/10 02:07:08;;;;;;;8.07;6.10;;;;;;;11.31;60.28;100410.63;10264179;28;20058;-66
2022/05/10 02:12:12;;;;;;;6.57;5.60;;;;;;;11.37;60.18;100409.41;10266364;28;20679;-66
2022/05/10 02:17:19;;;;;;;7.85;5.82;;;;;;;11.35;60.21;100408.66;10277954;28;20050;-66
2022/05/10 02:22:29;;;;;;;10.60;8.63;;;;;;;11.27;60.30;100414.34;10294937;28;20380;-66
2022/05/10 02:27:50;;;;;;;7.75;6.70;;;;;;;11.10;61.03;100417.88;10277847;28;20194;-66
2022/05/10 02:33:09;;;;;;;;;;;;;;;10.78;61.40;100421.31;10270350;28;20137;-64
2022/05/10 02:38:14;;;;;;;6.82;6.10;;;;;;;11.00;60.75;100415.78;10267601;28;20525;-66
2022/05/10 02:43:38;;;;;;;9.80;6.50;;;;;;;10.98;60.72;100410.63;10276416;28;20161;-64
2022/05/10 02:48:39;;;;;;;7.43;6.18;;;;;;;10.96;60.60;100402.03;10273022;28;20395;-64
2022/05/10 02:53:41;;;;;;;8.70;5.60;;;;;;;10.94;60.62;100397.78;10275591;28;20514;-64
2022/05/10 02:58:43;;;;;;;9.70;6.47;;;;;;;10.98;60.72;100399.31;10276255;28;20050;-64
2022/05/10 03:03:45;;;;;;;10.18;5.63;;;;;;;10.94;60.89;100396.03;10273711;28;20215;-66
2022/05/10 03:08:48;;;;;;;6.75;6.05;;;;;;;10.81;61.16;100392.38;10272408;28;20062;-64
2022/05/10 03:13:50;;;;;;;9.20;6.55;;;;;;;10.81;60.97;100388.91;10269366;28;20082;-64
2022/05/10 03:18:55;;;;;;;9.15;6.00;;;;;;;10.79;61.19;100389.00;10270133;28;20137;-66
2022/05/10 03:23:57;;;;;;;8.27;6.10;;;;;;;10.81;61.07;100388.91;10270159;28;20424;-66
2022/05/10 03:28:58;;;;;;;8.52;5.93;;;;;;;10.82;60.94;100388.00;10269107;28;20534;-66
2022/05/10 03:39:20;;;;;;;8.83;5.93;;;;;;;10.87;60.66;100388.56;10268298;28;20051;-64
2022/05/10 03:44:22;;;;;;;7.90;6.15;;;;;;;10.84;60.79;100384.38;10267429;28;20078;-64
2022/05/10 03:49:24;;;;;;;7.00;5.57;;;;;;;10.81;60.73;100383.66;10267670;28;20145;-64
2022/05/10 03:54:26;;;;;;;6.95;5.93;;;;;;;10.80;60.83;100384.59;10266451;28;20121;-64
2022/05/10 03:59:27;;;;;;;7.50;6.60;;;;;;;10.80;60.92;100390.69;10269838;28;20102;-65
2022/05/10 04:04:29;;;;;;;8.63;6.45;;;;;;;10.85;60.80;100386.03;10267618;28;20105;-64
2022/05/10 04:09:32;;;;;;;8.68;5.90;;;;;;;10.94;60.73;100387.34;10267908;28;20065;-65
2022/05/10 04:14:33;;;;;;;9.63;6.38;;;;;;;11.03;60.47;100384.22;10268492;28;20145;-64
2022/05/10 04:19:35;;;;;;;8.77;6.18;;;;;;;11.13;60.24;100388.06;10269162;28;20215;-65
2022/05/10 04:24:37;;;;;;;7.68;6.15;;;;;;;11.23;59.90;100384.00;10282093;28;20046;-64
2022/05/10 04:29:39;;;;;;;8.10;6.43;;;;;;;11.37;59.63;100391.09;10269792;28;20141;-66
2022/05/10 04:34:41;;;;;;;8.35;6.57;;;;;;;11.45;59.52;100386.28;10267439;28;20094;-66
2022/05/10 04:45:03;;;;;;;8.32;6.35;;;;;;;11.75;58.79;100393.25;10266585;28;20633;-64
2022/05/10 04:50:06;;;;;;;8.02;5.65;;;;;;;11.88;58.74;100396.84;10265683;28;20059;-66
2022/05/10 04:55:10;;;;;;;7.82;6.15;;;;;;;12.00;58.47;100390.91;10266000;28;20113;-66
2022/05/10 05:00:14;;;;;;;7.43;5.60;;;;;;;12.12;58.09;100389.31;10266388;28;20144;-64
2022/05/10 05:05:17;;;;;;;7.03;5.30;;;;;;;12.32;57.79;100391.66;10263396;28;20058;-64
2022/05/10 05:10:18;;;;;;;7.85;5.80;;;;;;;12.49;57.46;100386.25;10266897;28;20116;-65
2022/05/10 05:15:20;;;;;;;6.35;5.57;;;;;;;12.75;56.88;100390.75;10264887;28;20138;-65
2022/05/10 05:20:23;;;;;;;6.60;5.53;;;;;;;13.13;56.15;100395.41;10270503;28;20070;-66
2022/05/10 05:25:24;;;;;;;7.57;5.80;;;;;;;13.62;55.14;100391.34;10263186;28;20113;-65
2022/05/10 05:30:26;;;;;;;6.15;5.22;;;;;;;13.82;54.95;100393.50;10264448;28;20404;-64
2022/05/10 05:35:28;;;;;;;9.43;5.70;;;;;;;13.98;54.71;100393.38;10264901;28;20507;-66
2022/05/10 05:40:33;;;;;;;7.18;5.63;;;;;;;14.07;54.51;100380.44;10262645;28;20110;-65
2022/05/10 05:45:35;;;;;;;6.82;5.32;;;;;;;14.29;54.15;100379.81;10264757;28;20090;-65
2022/05/10 05:50:37;;;;;;;6.55;5.85;;;;;;;14.50;53.34;100383.66;10295713;28;20046;-65
2022/05/10 05:55:41;;;;;;;9.43;6.20;;;;;;;14.79;52.72;100386.91;10262893;28;20210;-65
2022/05/10 06:00:44;;;;;;;7.55;6.10;;;;;;;15.03;52.48;100382.53;10264564;28;20487;-65
2022/05/10 06:05:45;;;;;;;9.82;6.13;;;;;;;15.14;52.14;100377.38;10261457;28;20487;-64
2022/05/10 06:10:50;;;;;;;7.80;6.13;;;;;;;15.17;51.93;100375.34;10263117;28;20121;-65
2022/05/10 06:15:52;;;;;;;8.65;6.18;;;;;;;15.06;52.29;100380.53;10261668;28;20121;-65
2022/05/10 06:20:54;;;;;;;11.95;6.43;;;;;;;15.05;52.45;100378.84;10262484;28;20047;-65
2022/05/10 06:25:56;;;;;;;10.80;6.85;;;;;;;15.24;52.14;100378.38;10266561;28;20086;-64
2022/05/10 06:30:58;;;;;;;12.45;6.90;;;;;;;15.40;52.12;100376.31;10264772;28;20141;-65
2022/05/10 06:36:00;;;;;;;8.68;6.43;;;;;;;15.39;52.66;100379.91;10262849;28;20140;-65
2022/05/10 06:41:04;;;;;;;9.13;6.32;;;;;;;15.58;52.25;100367.09;10261904;28;20129;-64
2022/05/10 06:46:18;;;;;;;9.00;5.85;;;;;;;15.67;52.43;100361.16;10261307;28;20051;-64
2022/05/10 06:51:22;;;;;;;9.20;6.05;;;;;;;15.76;52.03;100362.25;10263672;28;20408;-64
2022/05/10 06:56:24;;;;;;;9.68;6.53;;;;;;;16.07;51.40;100357.22;10262446;28;20058;-66
2022/05/10 07:01:25;;;;;;;8.38;6.10;;;;;;;16.40;51.16;100350.31;10263173;28;20055;-65
2022/05/10 07:06:27;;;;;;;8.13;6.60;;;;;;;16.38;51.04;100354.88;10261586;28;20105;-64
2022/05/10 07:11:29;;;;;;;10.88;6.45;;;;;;;16.79;50.44;100344.63;10262658;28;20047;-65
2022/05/10 07:16:31;;;;;;;7.65;6.30;;;;;;;17.18;49.98;100344.06;10262098;28;20097;-65
2022/05/10 07:21:33;;;;;;;7.63;6.50;;;;;;;17.19;50.13;100340.47;10261959;28;20086;-64
2022/05/10 07:26:34;;;;;;;8.40;5.80;;;;;;;17.62;49.31;100332.56;10261631;28;20514;-64
2022/05/10 07:31:36;;;;;;;8.77;6.28;;;;;;;17.79;49.37;100334.66;10268851;28;20134;-64
2022/05/10 07:36:39;;;;;;;11.32;6.80;;;;;;;18.24;47.79;100322.03;10290589;28;20054;-64
2022/05/10 07:41:42;;;;;;;9.25;6.95;;;;;;;18.87;46.31;100320.91;10268450;28;20510;-65
2022/05/10 07:46:43;;;;;;;10.90;7.10;;;;;;;19.17;44.93;100319.06;10267943;28;20054;-64
2022/05/10 07:51:45;;;;;;;8.60;5.72;;;;;;;19.89;43.79;100316.03;10270373;28;20047;-65
2022/05/10 07:56:47;;;;;;;12.73;6.05;;;;;;;20.50;42.30;100304.00;10276587;28;20066;-64
2022/05/10 08:01:49;;;;;;;8.45;6.05;;;;;;;21.35;41.23;100301.06;10269276;28;20456;-64
2022/05/10 08:06:51;;;;;;;13.00;5.93;;;;;;;22.16;40.14;100295.47;10288573;28;20502;-64
2022/05/10 08:11:52;;;;;;;7.85;5.30;;;;;;;23.00;38.41;100291.06;10264829;28;20171;-66
2022/05/10 08:16:54;;;;;;;9.88;5.20;;;;;;;22.65;38.38;100289.41;10267653;28;20082;-66
2022/05/10 08:21:58;;;;;;;8.32;5.40;;;;;;;22.58;38.70;100279.50;10263320;28;20051;-68
2022/05/10 08:27:01;;;;;;;7.18;5.00;;;;;;;23.16;38.21;100282.25;10267425;28;20446;-67
2022/05/10 08:32:03;;;;;;;7.47;4.95;;;;;;;23.22;38.13;100273.59;10269653;28;20185;-67
2022/05/10 08:37:06;;;;;;;12.18;5.00;;;;;;;23.19;37.78;100277.41;10265731;28;20141;-68
2022/05/10 08:42:19;;;;;;;10.82;5.03;;;;;;;23.67;36.81;100265.16;10263094;28;20047;-68
2022/05/10 08:47:23;;;;;;;10.13;5.28;;;;;;;23.72;36.72;100258.28;10264159;28;20118;-67
2022/05/10 08:52:32;;;;;;;8.75;4.80;;;;;;;24.45;36.24;100252.84;10274001;28;20517;-67
2022/05/10 08:57:48;;;;;;;11.80;5.20;;;;;;;24.33;35.15;100246.22;10264869;28;20105;-66
2022/05/10 09:02:56;;;;;;;7.30;4.50;;;;;;;24.21;35.42;100245.72;10263380;28;20043;-67
2022/05/10 09:08:03;;;;;;;7.20;4.40;;;;;;;24.32;35.08;100234.66;10265829;28;20105;-67
2022/05/10 09:13:10;;;;;;;6.57;4.45;;;;;;;24.55;34.80;100232.06;10262783;28;20242;-67
2022/05/10 09:18:25;;;;;;;9.18;4.63;;;;;;;24.67;33.57;100225.34;10263813;28;20204;-67
2022/05/10 09:23:42;;;;;;;7.90;4.38;;;;;;;24.58;33.27;100226.38;10260460;28;20047;-67
2022/05/10 09:29:04;;;;;;;9.32;4.30;;;;;;;24.53;34.37;100218.06;10261716;28;20842;-67
2022/05/10 09:39:35;;;;;;;8.65;4.03;;;;;;;24.91;34.91;100204.66;10262391;28;20593;-68
2022/05/10 09:44:36;;;;;;;7.82;4.20;;;;;;;24.71;35.05;100199.91;10256370;28;20054;-67
2022/05/10 09:49:39;;;;;;;11.70;3.90;;;;;;;25.21;35.01;100188.72;10261610;28;20050;-67
2022/05/10 09:54:43;;;;;;;9.15;3.80;;;;;;;25.59;34.36;100187.78;10261650;28;20543;-68
2022/05/10 09:59:47;;;;;;;13.70;4.20;;;;;;;26.30;33.29;100177.25;10251502;28;20046;-67
2022/05/10 10:04:49;;;;;;;8.88;3.90;;;;;;;26.66;33.46;100177.34;10267689;28;20263;-68
2022/05/10 10:09:55;;;;;;;7.45;3.83;;;;;;;27.14;32.52;100167.69;10257092;28;20062;-68
2022/05/10 10:15:21;;;;;;;5.63;3.55;;;;;;;27.16;32.06;100160.31;10259346;28;20050;-68
2022/05/10 10:20:37;;;;;;;9.40;3.58;;;;;;;27.25;33.45;100151.97;10259001;28;20407;-68
2022/05/10 10:25:44;;;;;;;6.65;3.90;;;;;;;26.49;34.68;100154.41;10252886;28;20047;-66
2022/05/10 10:31:09;;;;;;;7.28;3.67;;;;;;;26.61;33.97;100143.03;10259256;28;20055;-67
2022/05/10 10:36:31;;;;;;;8.80;4.18;;;;;;;26.48;34.17;100139.34;10248409;28;20059;-67
2022/05/10 10:41:39;;;;;;;8.00;3.78;;;;;;;26.65;34.03;100136.25;10284257;28;20058;-66
2022/05/10 10:46:50;;;;;;;7.95;3.70;;;;;;;26.65;34.43;100125.53;10239571;28;20519;-67
2022/05/10 10:51:52;;;;;;;6.10;3.40;;;;;;;26.40;35.22;100118.84;10257253;28;20057;-67
2022/05/10 10:57:32;;;;;;;6.88;4.00;;;;;;;26.16;35.79;100113.78;10255490;28;20061;-67
2022/05/10 11:03:00;;;;;;;6.15;3.22;;;;;;;26.47;33.41;100109.00;10272722;28;20050;-67
2022/05/10 11:08:18;;;;;;;5.93;2.70;;;;;;;27.01;29.51;100104.00;10267085;28;20057;-67
2022/05/10 11:13:31;;;;;;;6.75;2.92;;;;;;;27.56;28.21;100097.00;10263754;28;20129;-68
2022/05/10 11:18:42;;;;;;;6.70;2.80;;;;;;;27.74;27.40;100086.59;10258755;28;20340;-68
2022/05/10 11:24:01;;;;;;;7.72;2.72;;;;;;;27.73;27.05;100079.59;10263795;28;20590;-68
2022/05/10 11:29:26;;;;;;;5.47;2.60;;;;;;;27.75;27.59;100069.47;10277037;28;20260;-68
2022/05/10 11:34:49;;;;;;;5.30;3.00;;;;;;;28.19;27.49;100056.41;10264415;28;20726;-68
2022/05/10 11:40:09;;;;;;;4.78;2.80;;;;;;;28.24;26.71;100060.16;10288414;28;20086;-67
2022/05/10 11:45:20;;;;;;;5.32;2.80;;;;;;;28.45;27.30;100059.19;10265897;28;20061;-67
2022/05/10 11:51:38;;;;;;;3.95;2.67;;;;;;;28.14;25.86;100045.41;10263656;28;20133;-66
2022/05/10 11:56:07;;;;;;;6.03;2.85;;;;;;;27.68;26.08;100047.06;10263994;28;20102;-67
2022/05/10 12:01:32;;;;;;;8.20;2.72;;;;;;;27.88;25.29;100029.19;10265853;28;20074;-67
2022/05/10 12:06:35;;;;;;;5.20;2.50;;;;;;;27.79;26.47;100028.53;10263173;28;20054;-67
2022/05/10 12:11:39;;;;;;;5.68;2.50;;;;;;;28.23;25.98;100014.63;10257546;28;20130;-67
2022/05/10 12:22:04;;;;;;;5.20;2.33;;;;;;;28.39;24.91;100008.06;10268920;28;20046;-67
2022/05/10 12:27:12;;;;;;;4.43;2.67;;;;;;;28.38;24.20;100009.91;10261329;28;20097;-68
2022/05/10 12:32:36;;;;;;;3.70;2.20;;;;;;;28.14;24.32;99997.00;10265402;28;20101;-68
2022/05/10 12:37:48;;;;;;;4.05;2.30;;;;;;;28.02;25.15;99998.63;10270165;28;20058;-67
2022/05/10 12:43:28;;;;;;;5.32;2.30;;;;;;;28.11;25.00;99990.22;10277031;28;20047;-67
2022/05/10 12:48:44;;;;;;;8.75;2.60;;;;;;;28.22;24.31;99986.06;10261442;28;20054;-67
2022/05/10 12:53:56;;;;;;;4.53;2.30;;;;;;;28.48;25.12;99978.09;10262687;28;20130;-67
2022/05/10 12:59:25;;;;;;;4.70;2.65;;;;;;;28.26;24.43;99969.31;10274523;28;20058;-67
2022/05/10 13:04:32;;;;;;;5.18;2.60;;;;;;;28.36;24.69;99974.31;10271511;28;20153;-67
2022/05/10 13:09:49;;;;;;;4.70;2.42;;;;;;;28.42;24.95;99960.06;10262353;28;20105;-67
2022/05/10 13:15:15;;;;;;;6.38;2.45;;;;;;;28.55;24.73;99967.31;10283282;28;20145;-67
2022/05/10 13:20:22;;;;;;;10.30;2.78;;;;;;;28.11;25.56;99951.72;10263905;28;20146;-67
2022/05/10 13:25:32;;;;;;;4.07;2.60;;;;;;;28.17;26.02;99951.75;10261627;28;20089;-67
2022/05/10 13:30:36;;;;;;;5.28;2.80;;;;;;;28.24;25.34;99936.41;10264166;28;20054;-67
2022/05/10 13:35:38;;;;;;;5.15;2.70;;;;;;;28.05;25.48;99936.41;10259764;28;20055;-67
2022/05/10 13:40:41;;;;;;;5.43;2.92;;;;;;;28.24;25.74;99941.81;10281656;28;20129;-66
2022/05/10 13:46:05;;;;;;;5.38;2.80;;;;;;;28.31;25.46;99936.47;10260684;28;20134;-68
2022/05/10 13:51:16;;;;;;;5.25;2.85;;;;;;;28.74;25.62;99921.56;10256894;28;20066;-69
2022/05/10 13:56:26;;;;;;;6.78;3.00;;;;;;;28.54;26.12;99909.16;10260470;28;20692;-68
2022/05/10 14:01:49;;;;;;;3.80;2.63;;;;;;;28.63;25.97;99903.34;10262992;28;20046;-68
2022/05/10 14:06:57;;;;;;;5.40;2.70;;;;;;;28.76;25.40;99899.81;10266100;28;20138;-68
2022/05/10 14:11:59;;;;;;;6.25;2.65;;;;;;;28.49;25.66;99899.00;10260906;28;20051;-69
2022/05/10 14:17:04;;;;;;;5.18;2.45;;;;;;;28.51;24.62;99890.72;10258912;28;20141;-67
2022/05/10 14:22:15;;;;;;;4.72;2.70;;;;;;;28.54;24.80;99885.78;10256137;28;20046;-67
2022/05/10 14:27:20;;;;;;;5.25;2.45;;;;;;;28.38;24.70;99883.47;10263497;28;20117;-67
2022/05/10 14:32:22;;;;;;;4.22;2.50;;;;;;;28.44;24.61;99877.28;10241796;28;20086;-67
2022/05/10 14:37:31;;;;;;;4.10;2.38;;;;;;;28.13;23.91;99871.69;10262838;28;20612;-68
2022/05/10 14:42:38;;;;;;;4.95;2.22;;;;;;;28.05;24.25;99863.81;10276807;28;20057;-67
2022/05/10 14:47:41;;;;;;;4.57;2.20;;;;;;;27.86;23.99;99857.38;10260198;28;20485;-67
2022/05/10 14:52:43;;;;;;;4.55;2.40;;;;;;;27.70;23.77;99851.50;10264846;28;20165;-68
2022/05/10 14:57:52;;;;;;;4.15;2.30;;;;;;;27.86;23.86;99854.69;10265628;28;20582;-68
2022/05/10 15:03:04;;;;;;;4.65;2.35;;;;;;;27.62;23.45;99844.47;10277070;28;20086;-68
2022/05/10 15:08:07;;;;;;;5.00;2.38;;;;;;;27.39;23.95;99842.16;10271731;28;20050;-68
2022/05/10 15:13:09;;;;;;;3.72;2.00;;;;;;;27.30;24.06;99829.91;10287479;28;20473;-67
2022/05/10 15:23:35;;;;;;;5.40;2.15;;;;;;;27.58;24.35;99831.66;10266507;28;20133;-68
2022/05/10 15:28:36;;;;;;;5.53;2.20;;;;;;;27.75;24.32;99822.22;10265253;28;20146;-67
2022/05/10 15:33:38;;;;;;;5.00;2.20;;;;;;;27.78;24.79;99822.63;10260056;28;20140;-67
2022/05/10 15:38:41;;;;;;;6.25;2.35;;;;;;;27.43;24.91;99821.06;10261510;28;20058;-67
2022/05/10 15:43:43;;;;;;;3.90;2.20;;;;;;;27.18;25.79;99815.41;10262952;28;20577;-67
2022/05/10 15:48:45;;;;;;;7.18;2.42;;;;;;;26.94;25.86;99817.75;10267292;28;20130;-66
2022/05/10 15:53:47;;;;;;;3.83;2.30;;;;;;;26.75;26.18;99813.13;10269590;28;20082;-66
2022/05/10 15:58:52;;;;;;;5.47;2.40;;;;;;;26.45;26.37;99796.41;10267877;28;20065;-67
2022/05/10 16:03:54;;;;;;;5.00;2.60;;;;;;;26.55;27.18;99804.91;10270779;28;20142;-67
2022/05/10 16:08:56;;;;;;;5.45;2.60;;;;;;;26.41;26.93;99797.81;10263345;28;20628;-69
2022/05/10 16:13:58;;;;;;;6.88;2.60;;;;;;;26.27;27.27;99799.59;10267021;28;20082;-68
2022/05/10 16:19:00;;;;;;;6.93;2.80;;;;;;;26.27;27.41;99801.44;10266163;28;20062;-68
2022/05/10 16:24:02;;;;;;;16.63;3.35;;;;;;;26.33;27.45;99797.97;10265342;28;20403;-68
2022/05/10 16:34:24;;;;;;;12.93;3.42;;;;;;;26.87;27.73;99788.22;10263373;28;20153;-68
2022/05/10 16:39:26;;;;;;;9.57;3.40;;;;;;;26.40;29.07;99798.84;10262306;28;20133;-67
2022/05/10 16:44:28;;;;;;;5.28;2.65;;;;;;;26.09;29.19;99787.69;10265001;28;20441;-68
2022/05/10 16:49:30;;;;;;;8.25;3.10;;;;;;;25.87;29.87;99795.72;10264741;28;20104;-66
2022/05/10 16:54:36;;;;;;;6.00;2.90;;;;;;;25.83;29.81;99788.28;10263677;28;20176;-68
2022/05/10 16:59:39;;;;;;;7.07;2.95;;;;;;;25.74;30.04;99790.25;10263156;28;20920;-67
2022/05/10 17:04:41;;;;;;;5.97;2.75;;;;;;;25.92;29.57;99787.94;10263799;28;20050;-68
2022/05/10 17:09:43;;;;;;;10.25;3.15;;;;;;;26.00;29.45;99786.19;10264655;28;20055;-69
2022/05/10 17:14:44;;;;;;;6.72;2.72;;;;;;;25.92;29.43;99780.94;10257935;28;20190;-69
2022/05/10 17:19:46;;;;;;;5.65;2.50;;;;;;;25.64;29.32;99781.72;10276274;28;20046;-69
2022/05/10 17:24:48;;;;;;;7.93;2.90;;;;;;;25.46;29.72;99780.50;10279194;28;20051;-69
2022/05/10 17:29:54;;;;;;;5.40;2.58;;;;;;;25.17;29.53;99781.41;10262535;28;20051;-68
2022/05/10 17:34:57;;;;;;;5.28;2.90;;;;;;;24.95;30.35;99779.69;10258119;28;20059;-69
2022/05/10 17:39:59;;;;;;;6.72;2.78;;;;;;;24.80;30.96;99777.03;10260885;28;20165;-68
2022/05/10 17:45:01;;;;;;;8.57;2.80;;;;;;;24.64;31.05;99781.72;10276682;28;20545;-68
2022/05/10 17:50:04;;;;;;;6.38;2.65;;;;;;;24.58;32.21;99774.44;10263663;28;20061;-68
2022/05/10 17:55:08;;;;;;;5.78;2.60;;;;;;;24.37;32.80;99769.81;10263284;28;20051;-66
2022/05/10 18:00:14;;;;;;;5.70;2.60;;;;;;;24.31;32.20;99775.09;10261985;28;20545;-67
2022/05/10 18:05:16;;;;;;;5.60;2.67;;;;;;;24.31;33.02;99775.09;10263729;28;20082;-66
2022/05/10 18:10:18;;;;;;;5.35;2.58;;;;;;;24.19;32.65;99782.72;10277305;28;20082;-67
2022/05/10 18:15:20;;;;;;;6.22;2.70;;;;;;;24.10;34.11;99784.63;10263533;28;20138;-67
2022/05/10 18:20:22;;;;;;;4.50;2.78;;;;;;;23.88;35.20;99782.81;10263557;28;20082;-68
2022/05/10 18:25:24;;;;;;;8.07;2.97;;;;;;;23.68;35.38;99786.97;10262383;28;20090;-67
2022/05/10 18:30:25;;;;;;;4.80;2.78;;;;;;;23.42;36.03;99794.50;10263768;28;20098;-67
2022/05/10 18:35:29;;;;;;;4.68;2.65;;;;;;;23.21;36.06;99792.44;10262633;28;20121;-66
2022/05/10 18:40:31;;;;;;;4.28;2.80;;;;;;;22.96;36.17;99793.59;10259901;28;20487;-67
2022/05/10 18:45:32;;;;;;;5.25;3.13;;;;;;;22.76;37.04;99792.31;10262656;28;20098;-66
2022/05/10 18:50:34;;;;;;;6.90;3.35;;;;;;;22.50;37.40;99792.56;10274518;28;20488;-66
2022/05/10 18:55:37;;;;;;;4.93;2.80;;;;;;;22.33;38.54;99787.44;10259798;28;20137;-67
2022/05/10 19:00:39;;;;;;;5.38;2.97;;;;;;;22.03;39.09;99799.63;10261610;28;20057;-67
2022/05/10 19:05:41;;;;;;;4.68;2.97;;;;;;;21.75;39.57;99800.94;10263007;28;20929;-67
2022/05/10 19:10:43;;;;;;;5.22;3.20;;;;;;;21.45;39.93;99797.09;10261388;28;20098;-66
2022/05/10 19:15:44;;;;;;;6.22;2.97;;;;;;;21.28;40.36;99810.47;10260756;28;20528;-67
2022/05/10 19:20:46;;;;;;;5.35;2.80;;;;;;;21.12;40.82;99810.44;10261603;28;20404;-67
2022/05/10 19:25:48;;;;;;;4.70;3.13;;;;;;;20.94;41.46;99813.22;10269130;28;20475;-66
2022/05/10 19:30:50;;;;;;;5.32;2.97;;;;;;;20.76;41.83;99823.94;10273637;28;20606;-67
2022/05/10 19:35:52;;;;;;;4.55;3.22;;;;;;;20.58;42.73;99820.50;10276293;28;20053;-67
2022/05/10 19:40:55;;;;;;;5.90;3.42;;;;;;;20.34;43.40;99825.66;10269704;28;20058;-67
2022/05/10 19:46:08;;;;;;;6.95;3.65;;;;;;;20.16;43.73;99820.38;10268871;28;20053;-67
2022/05/10 19:51:10;;;;;;;4.55;3.30;;;;;;;19.99;43.91;99823.91;10266643;28;20462;-66
2022/05/10 19:56:12;;;;;;;5.72;3.45;;;;;;;19.88;44.41;99836.59;10269462;28;20058;-66
2022/05/10 20:05:21;;;;;;;6.20;3.45;;;;;;;19.72;44.82;99841.72;10263355;28;20486;-62
2022/05/10 20:06:35;;;;;;;4.90;3.10;;;;;;;19.51;44.92;99826.09;10263263;28;20058;-62
2022/05/10 20:11:38;;;;;;;5.68;3.13;;;;;;;19.36;45.33;99836.38;10267358;28;20475;-62
2022/05/10 20:16:43;;;;;;;5.25;3.50;;;;;;;19.11;45.87;99829.16;10283656;28;20050;-62
2022/05/10 20:21:44;;;;;;;10.35;3.50;;;;;;;19.01;46.04;99830.97;10273170;28;20047;-62
2022/05/10 20:26:53;;;;;;;7.20;3.80;;;;;;;18.88;46.44;99830.50;10292159;28;20116;-62
2022/05/10 20:31:55;;;;;;;5.82;3.47;;;;;;;18.75;46.68;99835.28;10279038;28;20094;-62
2022/05/10 20:36:58;;;;;;;4.57;3.63;;;;;;;18.52;47.39;99832.16;10261358;28;20319;-62
2022/05/10 20:42:00;;;;;;;8.45;3.60;;;;;;;18.28;47.96;99833.66;10263237;28;20495;-62
2022/05/10 20:47:01;;;;;;;5.90;3.88;;;;;;;18.16;47.91;99832.06;10270632;28;20104;-62
2022/05/10 20:52:04;;;;;;;7.38;3.60;;;;;;;18.12;48.30;99828.03;10302007;28;20073;-62
2022/05/10 20:57:06;;;;;;;4.38;3.47;;;;;;;18.05;48.32;99825.16;10278381;28;20638;-62
2022/05/10 21:02:08;;;;;;;7.03;3.70;;;;;;;17.93;48.55;99812.22;10257651;28;20571;-62
2022/05/10 21:12:30;;;;;;;8.13;3.92;;;;;;;17.78;49.03;99823.22;10269999;28;20173;-61
2022/05/10 21:17:33;;;;;;;5.38;3.80;;;;;;;17.76;49.04;99830.47;10264634;28;20164;-62
2022/05/10 21:22:37;;;;;;;5.85;3.80;;;;;;;17.55;49.48;99826.25;10264930;28;20088;-62
2022/05/10 21:27:39;;;;;;;6.97;4.28;;;;;;;17.37;49.75;99825.28;10262253;28;20151;-62
2022/05/10 21:32:51;;;;;;;5.43;3.85;;;;;;;17.22;50.35;99832.72;10265154;28;20122;-62
2022/05/10 21:37:54;;;;;;;5.35;3.70;;;;;;;17.10;50.17;99825.88;10263856;28;20578;-62
2022/05/10 21:42:57;;;;;;;6.85;4.05;;;;;;;16.97;50.75;99820.88;10263831;28;20058;-62
2022/05/10 21:47:59;;;;;;;7.93;3.80;;;;;;;16.88;50.81;99818.16;10297909;28;20431;-62
2022/05/10 21:53:04;;;;;;;5.85;4.15;;;;;;;16.91;51.14;99820.56;10263914;28;20132;-61
2022/05/10 21:58:06;;;;;;;5.32;4.10;;;;;;;16.88;50.99;99816.38;10263551;28;20144;-61
2022/05/10 22:03:11;;;;;;;6.22;4.00;;;;;;;16.86;51.12;99806.91;10263274;28;20047;-61
2022/05/10 22:08:14;;;;;;;4.80;3.83;;;;;;;16.84;51.40;99808.84;10263500;28;20055;-61
2022/05/10 22:13:16;;;;;;;6.70;4.05;;;;;;;16.76;51.50;99801.59;10262890;28;20165;-61
2022/05/10 22:18:18;;;;;;;5.28;3.80;;;;;;;16.84;51.04;99798.28;10263144;28;20206;-61
2022/05/10 22:23:20;;;;;;;6.75;3.90;;;;;;;16.85;51.10;99798.13;10275675;28;20473;-63
2022/05/10 22:28:22;;;;;;;5.68;3.97;;;;;;;16.87;51.32;99798.03;10260165;28;20547;-61
2022/05/10 22:33:24;;;;;;;5.95;3.92;;;;;;;16.85;51.10;99795.50;10261010;28;20049;-63
2022/05/10 22:38:25;;;;;;;5.85;3.95;;;;;;;16.83;50.96;99786.88;10262212;28;20529;-62
2022/05/10 22:43:27;;;;;;;5.82;4.18;;;;;;;16.87;51.19;99784.81;10259539;28;20179;-62
2022/05/10 22:48:29;;;;;;;5.05;3.65;;;;;;;16.92;51.05;99787.88;10261342;28;20503;-61
2022/05/10 22:53:31;;;;;;;8.18;3.90;;;;;;;16.98;50.78;99782.88;10275468;28;20141;-61
2022/05/10 22:58:38;;;;;;;4.90;3.83;;;;;;;16.93;51.17;99784.28;10265928;28;20072;-61
2022/05/10 23:03:40;;;;;;;7.18;3.97;;;;;;;16.69;51.51;99778.50;10268888;28;20057;-61
2022/05/10 23:08:41;;;;;;;5.43;4.20;;;;;;;16.52;51.87;99771.22;10268374;28;20532;-61
2022/05/10 23:13:43;;;;;;;4.60;3.80;;;;;;;16.42;51.87;99767.66;10270653;28;20221;-61
2022/05/10 23:18:45;;;;;;;5.55;4.03;;;;;;;16.28;52.31;99760.94;10267425;28;20142;-62
2022/05/10 23:23:46;;;;;;;5.15;3.83;;;;;;;16.18;52.89;99771.44;10268123;28;20074;-61
2022/05/10 23:28:48;;;;;;;7.28;4.00;;;;;;;16.15;52.69;99774.34;10297352;28;20145;-62
2022/05/10 23:33:51;;;;;;;6.13;3.97;;;;;;;16.13;52.88;99768.38;10295095;28;20704;-62
2022/05/10 23:38:57;;;;;;;8.18;4.20;;;;;;;16.10;52.89;99765.97;10266775;28;20128;-62
2022/05/10 23:44:07;;;;;;;5.60;4.15;;;;;;;16.06;53.17;99761.91;10266260;28;20307;-62
2022/05/10 23:49:11;;;;;;;9.23;4.10;;;;;;;16.03;53.30;99756.06;10265797;28;20432;-61
2022/05/10 23:54:14;;;;;;;6.72;4.75;;;;;;;15.99;53.05;99757.31;10266926;28;20058;-62
2022/05/10 23:59:17;;;;;;;6.38;4.55;;;;;;;15.74;53.72;99750.63;10266759;28;20149;-61
